createdAt,value
2019-01-21T00:01:07.995Z,96.50
2019-01-21T00:02:12.500Z,96.45
2019-01-21T00:03:16.855Z,105.30
2019-01-21T00:04:21.129Z,95.65
2019-01-21T00:05:25.400Z,115.85
2019-01-21T00:06:29.659Z,97.08
2019-01-21T00:07:33.994Z,94.22
2019-01-21T00:08:38.272Z,91.65
2019-01-21T00:09:42.524Z,93.42
2019-01-21T00:10:46.804Z,90.87
2019-01-21T00:11:51.130Z,89.65
2019-01-21T00:12:55.402Z,93.95
2019-01-21T00:13:59.659Z,91.95
2019-01-21T00:15:04.311Z,93.67
2019-01-21T00:16:08.725Z,94.70
2019-01-21T00:17:13.062Z,98.22
2019-01-21T00:18:17.337Z,98.00
2019-01-21T00:19:21.610Z,90.75
2019-01-21T00:20:25.886Z,96.60
2019-01-21T00:21:30.145Z,91.35
2019-01-21T00:22:34.406Z,86.67
2019-01-21T00:23:38.777Z,88.80
2019-01-21T00:24:43.031Z,89.62
2019-01-21T00:25:47.358Z,80.10
2019-01-21T00:26:51.626Z,96.45
2019-01-21T00:27:55.873Z,94.37
2019-01-21T00:29:00.149Z,88.42
2019-01-21T00:30:04.894Z,95.10
2019-01-21T00:31:09.251Z,89.70
2019-01-21T00:32:13.514Z,99.58
2019-01-21T00:33:17.790Z,89.45
2019-01-21T00:34:22.065Z,92.97
2019-01-21T00:35:26.313Z,97.90
2019-01-21T00:36:30.673Z,95.92
2019-01-21T00:37:34.934Z,89.32
2019-01-21T00:38:39.195Z,85.77
2019-01-21T00:39:43.462Z,95.12
2019-01-21T00:40:47.722Z,94.45
2019-01-21T00:41:51.977Z,87.50
2019-01-21T00:42:56.243Z,97.10
2019-01-21T00:44:00.503Z,96.95
2019-01-21T00:45:05.274Z,94.70
2019-01-21T00:46:09.622Z,92.88
2019-01-21T00:47:13.882Z,93.95
2019-01-21T00:48:18.143Z,104.63
2019-01-21T00:49:22.486Z,98.00
2019-01-21T00:50:26.817Z,90.95
2019-01-21T00:51:31.094Z,93.62
2019-01-21T00:52:35.363Z,102.85
2019-01-21T00:53:39.614Z,120.87
2019-01-21T00:54:43.886Z,97.78
2019-01-21T00:55:48.241Z,106.87
2019-01-21T00:56:52.572Z,102.67
2019-01-21T00:57:56.837Z,92.75
2019-01-21T00:59:01.097Z,98.85
2019-01-21T01:00:08.414Z,106.65
2019-01-21T01:01:12.757Z,105.60
2019-01-21T01:02:17.021Z,108.70
2019-01-21T01:03:21.291Z,98.17
2019-01-21T01:04:25.550Z,105.72
2019-01-21T01:05:29.841Z,107.58
2019-01-21T01:06:34.108Z,105.20
2019-01-21T01:07:39.223Z,105.05
2019-01-21T01:08:43.486Z,102.15
2019-01-21T01:09:47.858Z,101.97
2019-01-21T01:10:52.142Z,95.47
2019-01-21T01:11:56.415Z,108.47
2019-01-21T01:13:00.684Z,102.05
2019-01-21T01:14:05.123Z,113.10
2019-01-21T01:15:10.361Z,99.55
2019-01-21T01:16:14.665Z,106.83
2019-01-21T01:17:18.914Z,96.15
2019-01-21T01:18:23.337Z,99.70
2019-01-21T01:19:27.593Z,101.55
2019-01-21T01:20:31.958Z,94.35
2019-01-21T01:21:36.226Z,102.22
2019-01-21T01:22:40.539Z,103.35
2019-01-21T01:23:44.828Z,97.92
2019-01-21T01:24:49.102Z,95.07
2019-01-21T01:25:53.470Z,95.70
2019-01-21T01:26:57.738Z,101.33
2019-01-21T01:28:02.019Z,96.82
2019-01-21T01:29:06.276Z,93.95
2019-01-21T01:30:12.594Z,95.77
2019-01-21T01:31:16.866Z,94.32
2019-01-21T01:32:21.143Z,94.17
2019-01-21T01:33:25.418Z,107.97
2019-01-21T01:34:29.698Z,93.55
2019-01-21T01:35:34.050Z,99.83
2019-01-21T01:36:38.332Z,99.42
2019-01-21T01:37:42.997Z,99.47
2019-01-21T01:38:47.262Z,102.85
2019-01-21T01:39:51.593Z,107.43
2019-01-21T01:40:55.942Z,100.12
2019-01-21T01:42:00.201Z,99.65
2019-01-21T01:43:05.196Z,100.67
2019-01-21T01:44:09.916Z,155.20
2019-01-21T01:45:18.225Z,105.03
2019-01-21T01:46:22.633Z,98.50
2019-01-21T01:47:26.897Z,102.53
2019-01-21T01:48:31.162Z,100.53
2019-01-21T01:49:35.451Z,100.67
2019-01-21T01:50:39.719Z,100.70
2019-01-21T01:51:44.058Z,108.95
2019-01-21T01:52:48.431Z,95.07
2019-01-21T01:53:52.763Z,101.55
2019-01-21T01:54:57.027Z,105.17
2019-01-21T01:56:01.298Z,103.72
2019-01-21T01:57:05.702Z,113.25
2019-01-21T01:58:10.142Z,96.10
2019-01-21T01:59:14.481Z,99.70
2019-01-21T02:00:18.918Z,110.52
2019-01-21T02:01:23.182Z,95.57
2019-01-21T02:02:27.525Z,103.62
2019-01-21T02:03:31.877Z,90.25
2019-01-21T02:04:36.503Z,104.10
2019-01-21T02:05:41.038Z,93.22
2019-01-21T02:06:45.289Z,98.33
2019-01-21T02:07:49.637Z,104.67
2019-01-21T02:08:53.980Z,107.03
2019-01-21T02:09:58.324Z,107.15
2019-01-21T02:11:02.614Z,111.92
2019-01-21T02:12:07.017Z,102.58
2019-01-21T02:13:11.362Z,107.32
2019-01-21T02:14:15.626Z,104.65
2019-01-21T02:15:20.033Z,107.85
2019-01-21T02:16:24.301Z,128.45
2019-01-21T02:17:28.576Z,107.03
2019-01-21T02:18:32.877Z,107.03
2019-01-21T02:19:38.708Z,106.07
2019-01-21T02:20:44.134Z,107.30
2019-01-21T02:21:50.958Z,119.17
2019-01-21T02:22:58.438Z,114.08
2019-01-21T02:24:06.349Z,110.48
2019-01-21T02:25:11.181Z,118.72
2019-01-21T02:26:28.134Z,112.65
2019-01-21T02:28:18.150Z,119.28
2019-01-21T02:29:32.458Z,103.10
2019-01-21T02:30:56.442Z,105.65
2019-01-21T02:32:43.423Z,110.28
2019-01-21T02:34:18.575Z,111.47
2019-01-21T02:35:42.934Z,111.28
2019-01-21T02:37:27.926Z,122.13
2019-01-21T02:39:07.366Z,112.00
2019-01-21T02:40:48.777Z,107.92
2019-01-21T02:42:15.427Z,104.03
2019-01-21T02:43:50.770Z,114.15
2019-01-21T02:45:27.197Z,106.78
2019-01-21T02:46:44.798Z,107.12
2019-01-21T02:48:04.160Z,106.80
2019-01-21T02:50:00.521Z,104.40
2019-01-21T02:51:41.694Z,99.77
2019-01-21T02:53:15.630Z,107.67
2019-01-21T02:54:41.669Z,106.05
2019-01-21T02:56:20.362Z,105.60
2019-01-21T02:57:48.046Z,102.00
2019-01-21T02:59:57.802Z,110.42
2019-01-21T03:01:37.921Z,100.62
2019-01-21T03:03:19.615Z,99.72
2019-01-21T03:04:51.811Z,109.03
2019-01-21T03:06:17.042Z,106.65
2019-01-21T03:07:52.128Z,107.58
2019-01-21T03:09:27.279Z,110.03
2019-01-21T03:10:58.230Z,104.15
2019-01-21T03:12:24.287Z,114.30
2019-01-21T03:13:50.572Z,112.92
2019-01-21T03:15:25.645Z,104.70
2019-01-21T03:16:47.045Z,113.77
2019-01-21T03:18:29.948Z,116.12
2019-01-21T03:20:11.934Z,109.25
2019-01-21T03:22:00.638Z,114.55
2019-01-21T03:23:47.913Z,117.22
2019-01-21T03:25:33.539Z,117.03
2019-01-21T03:26:58.903Z,115.22
2019-01-21T03:28:45.771Z,122.78
2019-01-21T03:30:05.346Z,119.55
2019-01-21T03:31:54.367Z,120.37
2019-01-21T03:33:27.128Z,109.55
2019-01-21T03:34:59.991Z,121.77
2019-01-21T03:36:32.104Z,123.13
2019-01-21T03:38:29.587Z,119.47
2019-01-21T03:40:23.301Z,114.47
2019-01-21T03:41:44.210Z,128.97
2019-01-21T03:43:32.646Z,139.15
2019-01-21T03:45:10.410Z,129.87
2019-01-21T03:46:44.079Z,118.47
2019-01-21T03:48:16.674Z,131.18
2019-01-21T03:49:27.570Z,134.65
2019-01-21T03:51:34.111Z,141.80
2019-01-21T03:53:18.669Z,137.10
2019-01-21T03:54:42.267Z,134.25
2019-01-21T03:55:47.696Z,129.90
2019-01-21T03:57:10.315Z,139.92
2019-01-21T03:58:42.577Z,142.77
2019-01-21T04:00:23.795Z,128.55
2019-01-21T04:01:58.027Z,121.92
2019-01-21T04:03:55.550Z,126.38
2019-01-21T04:05:20.192Z,126.12
2019-01-21T04:06:33.299Z,118.47
2019-01-21T04:08:07.533Z,130.40
2019-01-21T04:09:51.905Z,130.45
2019-01-21T04:11:12.393Z,129.40
2019-01-21T04:12:38.055Z,133.63
2019-01-21T04:14:08.651Z,132.10
2019-01-21T04:15:28.158Z,128.05
2019-01-21T04:17:05.891Z,116.33
2019-01-21T04:18:40.886Z,126.60
2019-01-21T04:20:01.343Z,129.27
2019-01-21T04:21:41.906Z,139.10
2019-01-21T04:23:07.605Z,137.95
2019-01-21T04:24:35.330Z,133.97
2019-01-21T04:26:05.314Z,140.00
2019-01-21T04:27:41.324Z,139.37
2019-01-21T04:29:14.091Z,131.52
2019-01-21T04:30:32.998Z,131.22
2019-01-21T04:32:24.479Z,138.80
2019-01-21T04:34:20.899Z,129.03
2019-01-21T04:35:55.166Z,134.57
2019-01-21T04:37:18.783Z,128.72
2019-01-21T04:38:54.506Z,143.68
2019-01-21T04:40:11.686Z,140.75
2019-01-21T04:41:48.162Z,132.67
2019-01-21T04:43:26.442Z,137.12
2019-01-21T04:45:01.981Z,131.52
2019-01-21T04:46:29.972Z,130.50
2019-01-21T04:48:19.090Z,141.10
2019-01-21T04:49:48.808Z,139.25
2019-01-21T04:51:16.386Z,137.80
2019-01-21T04:53:18.479Z,136.65
2019-01-21T04:54:47.219Z,132.75
2019-01-21T04:56:14.230Z,131.55
2019-01-21T04:57:54.554Z,139.25
2019-01-21T04:59:11.706Z,136.35
2019-01-21T05:01:14.555Z,134.37
2019-01-21T05:02:53.008Z,120.05
2019-01-21T05:04:24.171Z,129.87
2019-01-21T05:05:38.654Z,1999.90
2019-01-21T05:07:16.464Z,1337.10
2019-01-21T05:08:53.555Z,1484.33
2019-01-21T05:10:36.560Z,499.50
2019-01-21T05:12:08.207Z,268.10
2019-01-21T05:14:11.586Z,168.60
2019-01-21T05:15:46.867Z,195.03
2019-01-21T05:17:30.840Z,219.18
2019-01-21T05:18:57.073Z,129.60
2019-01-21T05:20:44.384Z,155.67
2019-01-21T05:22:25.435Z,195.38
2019-01-21T05:24:21.562Z,190.15
2019-01-21T05:25:36.498Z,214.68
2019-01-21T05:26:56.661Z,141.03
2019-01-21T05:28:27.083Z,184.28
2019-01-21T05:29:51.944Z,145.68
2019-01-21T05:31:40.589Z,159.35
2019-01-21T05:33:26.022Z,142.37
2019-01-21T05:34:54.678Z,165.68
2019-01-21T05:36:29.983Z,115.12
2019-01-21T05:37:59.662Z,146.25
2019-01-21T05:39:16.958Z,118.77
2019-01-21T05:40:54.570Z,141.12
2019-01-21T05:42:31.570Z,138.18
2019-01-21T05:44:08.464Z,131.15
2019-01-21T05:45:42.839Z,136.90
2019-01-21T05:47:28.722Z,116.88
2019-01-21T05:49:21.727Z,135.78
2019-01-21T05:51:08.730Z,131.37
2019-01-21T05:52:44.655Z,119.02
2019-01-21T05:54:41.008Z,112.42
2019-01-21T05:56:11.931Z,125.53
2019-01-21T05:57:35.438Z,128.02
2019-01-21T05:59:26.063Z,133.00
2019-01-21T06:01:03.853Z,134.15
2019-01-21T06:02:57.246Z,142.35
2019-01-21T06:04:18.778Z,221.43
2019-01-21T06:05:57.245Z,231.97
2019-01-21T06:07:14.674Z,266.35
2019-01-21T06:08:44.758Z,265.45
2019-01-21T06:10:04.482Z,293.07
2019-01-21T06:11:17.870Z,299.92
2019-01-21T06:12:51.590Z,298.52
2019-01-21T06:14:14.580Z,328.70
2019-01-21T06:15:40.939Z,299.48
2019-01-21T06:17:29.198Z,256.43
2019-01-21T06:19:23.659Z,223.00
2019-01-21T06:21:05.013Z,187.60
2019-01-21T06:22:39.217Z,136.68
2019-01-21T06:24:00.062Z,107.27
2019-01-21T06:25:50.337Z,108.70
2019-01-21T06:27:20.587Z,96.25
2019-01-21T06:29:14.166Z,89.37
2019-01-21T06:30:47.106Z,87.82
2019-01-21T06:32:31.082Z,86.42
2019-01-21T06:34:25.411Z,88.95
2019-01-21T06:36:03.535Z,85.12
2019-01-21T06:37:38.773Z,88.82
2019-01-21T06:39:07.847Z,82.25
2019-01-21T06:40:54.528Z,88.97
2019-01-21T06:42:24.775Z,98.42
2019-01-21T06:43:52.151Z,94.65
2019-01-21T06:45:43.135Z,96.97
2019-01-21T06:47:13.326Z,94.55
2019-01-21T06:48:53.577Z,99.05
2019-01-21T06:50:27.658Z,95.38
2019-01-21T06:52:06.011Z,96.78
2019-01-21T06:53:40.596Z,106.05
2019-01-21T06:55:13.930Z,104.23
2019-01-21T06:56:57.870Z,101.55
2019-01-21T06:58:25.552Z,106.20
2019-01-21T06:59:46.818Z,101.12
2019-01-21T07:01:34.130Z,110.00
2019-01-21T07:03:17.966Z,103.12
2019-01-21T07:04:55.569Z,99.42
2019-01-21T07:06:57.828Z,99.90
2019-01-21T07:08:33.423Z,98.85
2019-01-21T07:10:01.261Z,107.40
2019-01-21T07:11:44.614Z,98.78
2019-01-21T07:13:17.186Z,103.70
2019-01-21T07:15:03.787Z,96.53
2019-01-21T07:16:33.283Z,94.67
2019-01-21T07:18:08.042Z,109.87
2019-01-21T07:20:14.542Z,97.78
2019-01-21T07:21:51.270Z,93.00
2019-01-21T07:23:48.042Z,94.05
2019-01-21T07:25:05.654Z,96.80
2019-01-21T07:26:42.135Z,101.38
2019-01-21T07:28:18.589Z,94.75
2019-01-21T07:29:53.527Z,92.62
2019-01-21T07:31:24.895Z,99.65
2019-01-21T07:32:40.697Z,95.12
2019-01-21T07:33:59.073Z,93.62
2019-01-21T07:35:13.189Z,87.53
2019-01-21T07:37:04.743Z,93.35
2019-01-21T07:38:34.157Z,99.62
2019-01-21T07:40:12.918Z,92.37
2019-01-21T07:41:26.395Z,85.42
2019-01-21T07:43:00.867Z,95.03
2019-01-21T07:44:32.695Z,90.92
2019-01-21T07:46:05.412Z,86.85
2019-01-21T07:47:37.645Z,84.22
2019-01-21T07:49:22.155Z,84.55
2019-01-21T07:50:51.886Z,80.60
2019-01-21T07:52:30.426Z,80.85
2019-01-21T07:53:59.990Z,79.80
2019-01-21T07:55:40.246Z,81.20
2019-01-21T07:57:08.781Z,80.62
2019-01-21T07:58:56.364Z,72.92
2019-01-21T08:00:09.126Z,78.42
2019-01-21T08:01:47.394Z,81.30
2019-01-21T08:03:36.045Z,83.37
2019-01-21T08:05:02.394Z,73.78
2019-01-21T08:07:08.791Z,69.77
2019-01-21T08:08:34.670Z,86.32
2019-01-21T08:10:14.854Z,77.47
2019-01-21T08:12:16.487Z,75.22
2019-01-21T08:13:41.549Z,73.17
2019-01-21T08:15:11.438Z,72.22
2019-01-21T08:16:33.586Z,74.47
2019-01-21T08:18:17.662Z,74.85
2019-01-21T08:19:47.159Z,70.40
2019-01-21T08:21:13.334Z,75.08
2019-01-21T08:23:00.329Z,81.90
2019-01-21T08:24:33.030Z,78.65
2019-01-21T08:26:02.614Z,80.55
2019-01-21T08:27:33.766Z,78.72
2019-01-21T08:29:06.969Z,84.55
2019-01-21T08:30:32.842Z,78.65
2019-01-21T08:32:17.673Z,81.02
2019-01-21T08:33:33.394Z,75.60
2019-01-21T08:35:30.226Z,80.30
2019-01-21T08:37:01.797Z,62.50
2019-01-21T08:38:29.766Z,72.65
2019-01-21T08:40:09.421Z,67.10
2019-01-21T08:41:25.880Z,66.55
2019-01-21T08:42:57.494Z,66.77
2019-01-21T08:44:34.827Z,66.60
2019-01-21T08:46:06.277Z,61.88
2019-01-21T08:47:25.831Z,63.92
2019-01-21T08:48:51.753Z,59.42
2019-01-21T08:50:23.182Z,60.10
2019-01-21T08:51:55.591Z,58.92
2019-01-21T08:53:13.845Z,56.95
2019-01-21T08:54:43.982Z,58.30
2019-01-21T08:56:11.037Z,60.92
2019-01-21T08:57:41.114Z,59.27
2019-01-21T08:59:16.558Z,59.23
2019-01-21T09:00:51.027Z,54.73
2019-01-21T09:02:36.714Z,56.33
2019-01-21T09:03:59.334Z,64.72
2019-01-21T09:05:45.301Z,53.17
2019-01-21T09:07:12.038Z,59.55
2019-01-21T09:09:12.643Z,57.20
2019-01-21T09:10:45.720Z,55.98
2019-01-21T09:12:17.966Z,66.12
2019-01-21T09:13:45.246Z,56.63
2019-01-21T09:15:29.652Z,50.85
2019-01-21T09:17:02.714Z,54.35
2019-01-21T09:18:35.814Z,56.40
2019-01-21T09:20:10.873Z,53.73
2019-01-21T09:21:36.714Z,58.85
2019-01-21T09:22:53.703Z,53.87
2019-01-21T09:24:23.359Z,53.92
2019-01-21T09:25:37.761Z,52.13
2019-01-21T09:27:35.079Z,53.05
2019-01-21T09:29:12.045Z,50.80
2019-01-21T09:30:35.466Z,51.92
2019-01-21T09:32:07.986Z,51.50
2019-01-21T09:33:29.566Z,53.68
2019-01-21T09:34:58.474Z,46.88
2019-01-21T09:36:20.666Z,51.13
2019-01-21T09:38:06.201Z,53.75
2019-01-21T09:40:03.826Z,55.50
2019-01-21T09:41:32.695Z,52.62
2019-01-21T09:42:52.537Z,50.58
2019-01-21T09:44:18.183Z,55.23
2019-01-21T09:45:45.165Z,53.00
2019-01-21T09:46:48.794Z,52.33
2019-01-21T09:47:51.780Z,53.63
2019-01-21T09:48:54.750Z,49.65
2019-01-21T09:49:59.187Z,50.03
2019-01-21T09:51:06.138Z,50.88
2019-01-21T09:52:15.766Z,54.67
2019-01-21T09:53:20.220Z,46.95
2019-01-21T09:54:24.778Z,49.67
2019-01-21T09:55:29.210Z,52.70
2019-01-21T09:56:33.473Z,47.53
2019-01-21T09:57:38.932Z,50.73
2019-01-21T09:58:45.077Z,52.48
2019-01-21T09:59:54.331Z,48.08
2019-01-21T10:00:59.745Z,47.88
2019-01-21T10:02:06.762Z,47.35
2019-01-21T10:03:12.695Z,48.30
2019-01-21T10:04:24.220Z,49.63
2019-01-21T10:05:31.610Z,49.25
2019-01-21T10:07:13.018Z,46.60
2019-01-21T10:08:51.978Z,48.33
2019-01-21T10:10:13.099Z,49.53
2019-01-21T10:11:48.761Z,48.45
2019-01-21T10:13:25.730Z,47.45
2019-01-21T10:15:14.302Z,48.45
2019-01-21T10:16:46.643Z,44.90
2019-01-21T10:18:34.976Z,45.75
2019-01-21T10:20:16.197Z,41.88
2019-01-21T10:21:41.134Z,45.90
2019-01-21T10:23:12.441Z,50.10
2019-01-21T10:24:57.937Z,50.73
2019-01-21T10:26:28.767Z,45.28
2019-01-21T10:28:00.775Z,48.48
2019-01-21T10:29:19.758Z,47.60
2019-01-21T10:30:57.323Z,46.73
2019-01-21T10:32:41.967Z,44.30
2019-01-21T10:34:05.978Z,45.58
2019-01-21T10:35:43.443Z,45.17
2019-01-21T10:37:21.690Z,42.98
2019-01-21T10:38:55.642Z,40.98
2019-01-21T10:40:29.927Z,45.97
2019-01-21T10:41:52.563Z,41.17
2019-01-21T10:43:11.658Z,39.33
2019-01-21T10:44:49.706Z,44.00
2019-01-21T10:46:21.006Z,41.53
2019-01-21T10:47:52.949Z,49.03
2019-01-21T10:49:31.122Z,49.97
2019-01-21T10:50:48.331Z,42.67
2019-01-21T10:52:19.863Z,44.13
2019-01-21T10:53:49.863Z,43.90
2019-01-21T10:55:38.084Z,43.02
2019-01-21T10:56:55.191Z,43.45
2019-01-21T10:58:21.421Z,42.80
2019-01-21T11:00:24.774Z,43.17
2019-01-21T11:02:13.215Z,47.93
2019-01-21T11:04:01.420Z,43.87
2019-01-21T11:05:18.904Z,44.98
2019-01-21T11:06:38.786Z,46.30
2019-01-21T11:08:21.778Z,46.95
2019-01-21T11:09:37.641Z,48.98
2019-01-21T11:11:01.577Z,44.98
2019-01-21T11:12:38.189Z,46.48
2019-01-21T11:14:05.978Z,49.03
2019-01-21T11:15:16.746Z,47.62
2019-01-21T11:17:14.058Z,48.90
2019-01-21T11:18:44.230Z,49.38
2019-01-21T11:20:30.880Z,46.28
2019-01-21T11:21:41.703Z,43.83
2019-01-21T11:22:53.899Z,44.73
2019-01-21T11:24:36.825Z,47.58
2019-01-21T11:26:20.997Z,43.30
2019-01-21T11:27:59.866Z,42.90
2019-01-21T11:29:31.374Z,40.30
2019-01-21T11:31:02.422Z,48.55
2019-01-21T11:32:17.442Z,43.80
2019-01-21T11:33:49.250Z,48.08
2019-01-21T11:35:10.974Z,45.38
2019-01-21T11:36:39.846Z,49.13
2019-01-21T11:37:55.963Z,43.98
2019-01-21T11:39:33.882Z,43.58
2019-01-21T11:41:08.966Z,41.90
2019-01-21T11:42:52.558Z,39.92
2019-01-21T11:44:33.885Z,39.65
2019-01-21T11:45:47.854Z,37.88
2019-01-21T11:47:16.743Z,38.35
2019-01-21T11:48:55.317Z,41.70
2019-01-21T11:50:25.986Z,34.10
2019-01-21T11:51:58.874Z,36.80
2019-01-21T11:53:48.734Z,37.05
2019-01-21T11:55:29.711Z,38.92
2019-01-21T11:56:46.162Z,36.40
2019-01-21T11:58:20.362Z,41.77
2019-01-21T11:59:40.555Z,37.95
2019-01-21T12:01:04.701Z,34.10
2019-01-21T12:02:42.959Z,43.05
2019-01-21T12:04:05.366Z,37.85
2019-01-21T12:05:34.086Z,36.42
2019-01-21T12:07:09.679Z,38.55
2019-01-21T12:08:53.686Z,38.65
2019-01-21T12:10:25.906Z,37.05
2019-01-21T12:12:09.834Z,39.03
2019-01-21T12:13:32.942Z,37.98
2019-01-21T12:14:55.679Z,33.85
2019-01-21T12:16:39.399Z,34.58
2019-01-21T12:18:25.047Z,33.73
2019-01-21T12:20:00.871Z,33.78
2019-01-21T12:21:43.350Z,33.55
2019-01-21T12:23:19.049Z,34.50
2019-01-21T12:24:28.827Z,35.20
2019-01-21T12:25:46.022Z,34.55
2019-01-21T12:27:20.188Z,37.48
2019-01-21T12:28:49.559Z,33.70
2019-01-21T12:30:25.036Z,34.73
2019-01-21T12:32:05.110Z,38.25
2019-01-21T12:33:33.499Z,37.08
2019-01-21T12:35:34.174Z,37.55
2019-01-21T12:36:50.914Z,35.68
2019-01-21T12:38:54.380Z,34.35
2019-01-21T12:40:25.668Z,34.40
2019-01-21T12:41:40.014Z,35.63
2019-01-21T12:43:40.785Z,35.23
2019-01-21T12:45:10.030Z,38.00
2019-01-21T12:46:57.879Z,36.93
2019-01-21T12:48:17.587Z,37.55
2019-01-21T12:49:53.381Z,35.03
2019-01-21T12:51:33.406Z,39.90
2019-01-21T12:52:46.517Z,39.33
2019-01-21T12:54:16.202Z,35.35
2019-01-21T12:56:01.199Z,35.85
2019-01-21T12:57:46.957Z,41.53
2019-01-21T12:59:20.945Z,41.25
2019-01-21T13:00:52.901Z,37.53
2019-01-21T13:02:04.717Z,39.05
2019-01-21T13:03:38.438Z,36.63
2019-01-21T13:05:04.987Z,40.60
2019-01-21T13:06:21.130Z,38.55
2019-01-21T13:07:50.723Z,36.68
2019-01-21T13:09:33.195Z,37.15
2019-01-21T13:11:07.998Z,35.68
2019-01-21T13:12:39.238Z,37.30
2019-01-21T13:14:10.506Z,37.28
2019-01-21T13:15:34.545Z,38.38
2019-01-21T13:16:53.226Z,34.05
2019-01-21T13:18:29.755Z,35.33
2019-01-21T13:20:02.546Z,38.10
2019-01-21T13:21:53.210Z,36.88
2019-01-21T13:23:10.109Z,39.73
2019-01-21T13:24:32.571Z,40.00
2019-01-21T13:26:30.267Z,37.88
2019-01-21T13:28:07.061Z,39.70
2019-01-21T13:29:31.325Z,38.25
2019-01-21T13:31:25.186Z,35.50
2019-01-21T13:32:51.721Z,38.95
2019-01-21T13:34:26.529Z,39.88
2019-01-21T13:36:08.988Z,35.98
2019-01-21T13:37:56.642Z,36.95
2019-01-21T13:39:41.201Z,38.40
2019-01-21T13:41:18.990Z,36.40
2019-01-21T13:42:44.282Z,39.33
2019-01-21T13:44:28.894Z,34.23
2019-01-21T13:46:09.247Z,37.70
2019-01-21T13:47:40.110Z,37.03
2019-01-21T13:49:01.442Z,39.85
2019-01-21T13:50:16.567Z,35.00
2019-01-21T13:52:07.051Z,38.05
2019-01-21T13:53:46.890Z,37.38
2019-01-21T13:55:25.298Z,41.48
2019-01-21T13:57:21.626Z,40.20
2019-01-21T13:58:58.295Z,39.70
2019-01-21T14:01:01.810Z,38.60
2019-01-21T14:02:28.442Z,36.35
2019-01-21T14:04:20.356Z,41.58
2019-01-21T14:05:48.235Z,38.42
2019-01-21T14:07:19.363Z,41.08
2019-01-21T14:09:10.691Z,46.37
2019-01-21T14:10:32.853Z,38.02
2019-01-21T14:12:27.171Z,39.27
2019-01-21T14:13:54.602Z,37.20
2019-01-21T14:15:22.246Z,38.78
2019-01-21T14:16:48.056Z,43.23
2019-01-21T14:18:16.185Z,41.60
2019-01-21T14:19:51.107Z,38.17
2019-01-21T14:21:25.802Z,41.08
2019-01-21T14:22:44.214Z,40.38
2019-01-21T14:24:30.543Z,51.13
2019-01-21T14:26:15.980Z,38.63
2019-01-21T14:27:46.951Z,40.25
2019-01-21T14:29:44.494Z,42.23
2019-01-21T14:31:13.371Z,40.40
2019-01-21T14:32:49.175Z,41.00
2019-01-21T14:34:06.257Z,41.80
2019-01-21T14:35:28.973Z,40.95
2019-01-21T14:37:00.634Z,41.80
2019-01-21T14:38:57.206Z,42.08
2019-01-21T14:40:15.058Z,45.28
2019-01-21T14:41:51.594Z,40.90
2019-01-21T14:43:20.685Z,42.67
2019-01-21T14:44:56.655Z,44.23
2019-01-21T14:46:23.474Z,41.35
2019-01-21T14:48:00.934Z,43.40
2019-01-21T14:49:47.007Z,40.35
2019-01-21T14:51:38.635Z,46.50
2019-01-21T14:53:02.465Z,44.85
2019-01-21T14:54:30.602Z,44.10
2019-01-21T14:56:15.394Z,44.67
2019-01-21T14:57:51.694Z,41.88
2019-01-21T14:59:31.256Z,44.10
2019-01-21T15:01:01.066Z,44.05
2019-01-21T15:02:31.851Z,50.17
2019-01-21T15:04:11.549Z,47.62
2019-01-21T15:06:06.649Z,45.73
2019-01-21T15:07:35.796Z,43.08
2019-01-21T15:08:54.403Z,43.30
2019-01-21T15:10:40.908Z,43.25
2019-01-21T15:12:12.674Z,49.40
2019-01-21T15:13:26.359Z,40.20
2019-01-21T15:14:59.350Z,50.60
2019-01-21T15:16:34.286Z,44.73
2019-01-21T15:18:15.689Z,48.45
2019-01-21T15:19:27.925Z,45.20
2019-01-21T15:20:44.046Z,42.35
2019-01-21T15:22:24.479Z,41.77
2019-01-21T15:24:04.114Z,49.73
2019-01-21T15:25:39.882Z,42.83
2019-01-21T15:27:18.142Z,46.50
2019-01-21T15:28:57.533Z,48.35
2019-01-21T15:30:34.927Z,44.80
2019-01-21T15:32:16.660Z,46.35
2019-01-21T15:33:41.678Z,42.65
2019-01-21T15:35:20.756Z,46.48
2019-01-21T15:37:05.284Z,47.17
2019-01-21T15:38:33.562Z,49.58
2019-01-21T15:40:15.414Z,51.73
2019-01-21T15:42:01.392Z,50.98
2019-01-21T15:43:30.080Z,48.05
2019-01-21T15:45:11.557Z,45.95
2019-01-21T15:46:29.609Z,47.00
2019-01-21T15:47:59.428Z,50.70
2019-01-21T15:49:12.454Z,48.05
2019-01-21T15:50:43.274Z,48.78
2019-01-21T15:52:09.103Z,53.20
2019-01-21T15:53:38.438Z,45.85
2019-01-21T15:55:42.243Z,47.93
2019-01-21T15:57:03.991Z,46.33
2019-01-21T15:58:29.975Z,47.80
2019-01-21T16:00:13.982Z,51.05
2019-01-21T16:01:54.975Z,47.43
2019-01-21T16:03:23.313Z,47.35
2019-01-21T16:05:04.486Z,48.20
2019-01-21T16:06:49.063Z,48.25
2019-01-21T16:08:08.974Z,52.62
2019-01-21T16:09:50.048Z,52.58
2019-01-21T16:11:38.350Z,47.80
2019-01-21T16:13:14.142Z,46.83
2019-01-21T16:14:34.818Z,49.30
2019-01-21T16:16:31.429Z,48.48
2019-01-21T16:17:49.878Z,47.60
2019-01-21T16:19:07.085Z,49.15
2019-01-21T16:20:21.567Z,46.80
2019-01-21T16:22:14.325Z,51.63
2019-01-21T16:23:51.758Z,46.42
2019-01-21T16:25:18.087Z,48.45
2019-01-21T16:26:39.122Z,48.33
2019-01-21T16:28:20.623Z,51.30
2019-01-21T16:29:39.909Z,50.23
2019-01-21T16:30:55.368Z,50.98
2019-01-21T16:32:15.022Z,54.77
2019-01-21T16:33:45.545Z,46.83
2019-01-21T16:35:20.186Z,54.58
2019-01-21T16:36:35.378Z,50.92
2019-01-21T16:37:50.357Z,54.55
2019-01-21T16:39:37.846Z,51.60
2019-01-21T16:41:34.585Z,55.58
2019-01-21T16:42:38.858Z,45.92
2019-01-21T16:43:43.202Z,53.08
2019-01-21T16:44:48.095Z,54.90
2019-01-21T16:45:52.378Z,49.75
2019-01-21T16:46:56.653Z,50.70
2019-01-21T16:48:00.930Z,49.98
2019-01-21T16:49:05.288Z,50.48
2019-01-21T16:50:09.630Z,53.80
2019-01-21T16:51:20.172Z,54.03
2019-01-21T16:52:19.967Z,52.88
2019-01-21T16:53:24.233Z,52.83
2019-01-21T16:54:28.618Z,52.58
2019-01-21T16:55:32.902Z,59.00
2019-01-21T16:56:37.184Z,59.03
2019-01-21T16:57:41.449Z,56.80
2019-01-21T16:58:45.726Z,53.78
2019-01-21T16:59:50.025Z,52.20
2019-01-21T17:00:54.287Z,52.38
2019-01-21T17:01:58.642Z,51.15
2019-01-21T17:03:02.894Z,53.10
2019-01-21T17:04:07.162Z,52.25
2019-01-21T17:05:11.804Z,47.65
2019-01-21T17:06:16.166Z,53.25
2019-01-21T17:07:20.459Z,48.52
2019-01-21T17:08:24.719Z,51.68
2019-01-21T17:09:29.161Z,52.85
2019-01-21T17:10:39.156Z,49.55
2019-01-21T17:11:39.634Z,53.98
2019-01-21T17:12:43.914Z,48.15
2019-01-21T17:13:48.186Z,47.55
2019-01-21T17:14:57.468Z,49.25
2019-01-21T17:15:58.517Z,47.80
2019-01-21T17:17:05.142Z,47.20
2019-01-21T17:18:09.467Z,49.55
2019-01-21T17:19:13.738Z,48.40
2019-01-21T17:20:19.757Z,49.60
2019-01-21T17:21:27.041Z,48.80
2019-01-21T17:22:30.980Z,51.28
2019-01-21T17:23:35.373Z,47.30
2019-01-21T17:24:39.646Z,44.42
2019-01-21T17:25:43.935Z,48.28
2019-01-21T17:26:48.455Z,45.70
2019-01-21T17:27:52.758Z,50.12
2019-01-21T17:28:57.038Z,47.45
2019-01-21T17:30:01.485Z,50.30
2019-01-21T17:31:05.745Z,47.85
2019-01-21T17:32:10.154Z,50.50
2019-01-21T17:33:14.434Z,52.17
2019-01-21T17:34:18.715Z,47.83
2019-01-21T17:35:22.982Z,47.48
2019-01-21T17:36:27.283Z,46.48
2019-01-21T17:37:31.570Z,48.13
2019-01-21T17:38:35.837Z,47.45
2019-01-21T17:39:40.101Z,50.10
2019-01-21T17:40:44.373Z,48.58
2019-01-21T17:41:48.734Z,47.45
2019-01-21T17:42:53.010Z,48.02
2019-01-21T17:43:57.312Z,48.60
2019-01-21T17:45:01.578Z,46.75
2019-01-21T17:46:05.887Z,48.80
2019-01-21T17:47:10.234Z,48.60
2019-01-21T17:48:16.994Z,49.18
2019-01-21T17:49:21.370Z,50.60
2019-01-21T17:50:25.754Z,47.17
2019-01-21T17:51:33.815Z,48.63
2019-01-21T17:52:36.295Z,48.23
2019-01-21T17:53:40.582Z,48.23
2019-01-21T17:54:44.866Z,48.42
2019-01-21T17:55:49.176Z,49.30
2019-01-21T17:56:53.557Z,49.42
2019-01-21T17:57:57.860Z,52.93
2019-01-21T17:59:02.127Z,46.85
2019-01-21T18:00:08.802Z,43.02
2019-01-21T18:01:13.176Z,44.13
2019-01-21T18:02:17.458Z,46.30
2019-01-21T18:03:21.740Z,48.17
2019-01-21T18:04:26.030Z,43.60
2019-01-21T18:05:30.391Z,48.35
2019-01-21T18:06:34.774Z,47.53
2019-01-21T18:07:39.054Z,46.23